createdAt,value
2023-09-09T00:02:00.345Z,7.43
2023-09-09T00:04:27.599Z,7.13
2023-09-09T00:06:55.035Z,7.28
2023-09-09T00:09:22.295Z,6.78
2023-09-09T00:11:49.532Z,6.80
2023-09-09T00:14:16.655Z,6.60
2023-09-09T00:16:44.057Z,7.53
2023-09-09T00:19:11.390Z,7.00
2023-09-09T00:21:38.800Z,6.50
2023-09-09T00:24:05.897Z,7.07
2023-09-09T00:26:34.295Z,6.85
2023-09-09T00:29:01.683Z,6.55
2023-09-09T00:31:28.996Z,6.22
2023-09-09T00:33:56.248Z,6.88
2023-09-09T00:36:23.452Z,6.65
2023-09-09T00:38:50.937Z,6.15
2023-09-09T00:41:20.036Z,7.10
2023-09-09T00:43:47.347Z,6.38
2023-09-09T00:46:17.953Z,6.32
2023-09-09T00:48:45.348Z,7.05
2023-09-09T00:51:14.535Z,6.93
2023-09-09T00:53:42.946Z,6.85
2023-09-09T00:56:11.342Z,6.70
2023-09-09T00:58:39.154Z,6.43
2023-09-09T01:01:07.032Z,6.60
2023-09-09T01:03:34.890Z,6.20
2023-09-09T01:06:03.934Z,6.45
2023-09-09T01:08:31.876Z,8.32
2023-09-09T01:10:59.401Z,6.88
2023-09-09T01:13:27.332Z,7.47
2023-09-09T01:15:55.425Z,6.90
2023-09-09T01:18:23.305Z,6.70
2023-09-09T01:21:06.224Z,7.07
2023-09-09T01:23:33.608Z,6.78
2023-09-09T01:26:01.132Z,6.93
2023-09-09T01:28:28.535Z,7.10
2023-09-09T01:30:56.030Z,6.93
2023-09-09T01:33:23.364Z,6.90
2023-09-09T01:35:50.622Z,7.28
2023-09-09T01:38:17.936Z,7.53
2023-09-09T01:40:45.175Z,6.78
2023-09-09T01:43:12.390Z,7.03
2023-09-09T01:45:39.739Z,6.50
2023-09-09T01:48:07.541Z,5.97
2023-09-09T01:50:36.135Z,6.22
2023-09-09T01:53:04.995Z,6.95
2023-09-09T01:55:32.503Z,6.22
2023-09-09T01:57:59.915Z,6.72
2023-09-09T02:00:29.400Z,6.70
2023-09-09T02:02:57.229Z,7.18
2023-09-09T02:05:24.670Z,6.50
2023-09-09T02:07:51.890Z,6.05
2023-09-09T02:10:19.701Z,6.53
2023-09-09T02:12:46.844Z,6.75
2023-09-09T02:15:15.809Z,6.47
2023-09-09T02:17:43.236Z,6.53
2023-09-09T02:20:11.357Z,6.70
2023-09-09T02:22:38.840Z,6.20
2023-09-09T02:25:08.616Z,6.63
2023-09-09T02:27:36.626Z,6.45
2023-09-09T02:30:04.733Z,6.80
2023-09-09T02:32:31.994Z,6.97
2023-09-09T02:35:01.222Z,6.22
2023-09-09T02:37:28.942Z,6.85
2023-09-09T02:39:56.272Z,6.13
2023-09-09T02:42:25.276Z,7.00
2023-09-09T02:44:52.604Z,6.72
2023-09-09T02:47:21.745Z,6.70
2023-09-09T02:49:52.632Z,7.75
2023-09-09T02:52:22.133Z,6.90
2023-09-09T02:54:49.910Z,6.40
2023-09-09T02:57:17.177Z,7.00
2023-09-09T02:59:44.352Z,6.32
2023-09-09T03:02:11.733Z,6.50
2023-09-09T03:04:38.987Z,7.15
2023-09-09T03:07:06.367Z,6.10
2023-09-09T03:09:33.967Z,6.30
2023-09-09T03:12:02.890Z,6.03
2023-09-09T03:14:30.615Z,6.32
2023-09-09T03:16:58.165Z,6.65
2023-09-09T03:19:25.481Z,5.75
2023-09-09T03:21:52.886Z,5.82
2023-09-09T03:24:20.201Z,5.95
2023-09-09T03:26:47.499Z,6.20
2023-09-09T03:29:15.031Z,6.57
2023-09-09T03:31:42.229Z,6.68
2023-09-09T03:34:09.839Z,5.95
2023-09-09T03:36:37.178Z,6.28
2023-09-09T03:39:04.962Z,5.57
2023-09-09T03:41:32.824Z,6.28
2023-09-09T03:44:00.347Z,6.57
2023-09-09T03:46:28.234Z,5.90
2023-09-09T03:48:55.594Z,6.97
2023-09-09T03:51:23.409Z,7.03
2023-09-09T03:53:50.515Z,5.65
2023-09-09T03:56:22.218Z,5.68
2023-09-09T03:58:49.662Z,6.22
2023-09-09T04:01:17.153Z,6.10
2023-09-09T04:03:44.934Z,6.10
2023-09-09T04:06:14.042Z,6.40
2023-09-09T04:08:42.117Z,6.38
2023-09-09T04:11:09.595Z,5.90
2023-09-09T04:13:40.006Z,5.80
2023-09-09T04:16:07.899Z,6.70
2023-09-09T04:18:44.947Z,6.00
2023-09-09T04:21:14.233Z,6.32
2023-09-09T04:23:42.041Z,6.60
2023-09-09T04:26:09.599Z,6.25
2023-09-09T04:28:36.823Z,6.13
2023-09-09T04:31:06.053Z,5.93
2023-09-09T04:33:33.336Z,6.60
2023-09-09T04:36:01.301Z,6.78
2023-09-09T04:38:28.703Z,6.50
2023-09-09T04:40:55.928Z,8.05
2023-09-09T04:43:23.318Z,11.23
2023-09-09T04:45:50.555Z,8.48
2023-09-09T04:48:18.237Z,7.38
2023-09-09T04:50:45.048Z,7.40
2023-09-09T04:53:12.210Z,6.18
2023-09-09T04:55:39.624Z,7.97
2023-09-09T04:58:12.059Z,7.45
2023-09-09T05:00:39.746Z,6.05
2023-09-09T05:03:07.247Z,6.45
2023-09-09T05:05:34.626Z,6.13
2023-09-09T05:08:01.389Z,6.53
2023-09-09T05:10:28.959Z,5.78
2023-09-09T05:12:56.513Z,6.20
2023-09-09T05:15:23.784Z,8.43
2023-09-09T05:17:51.254Z,17.13
2023-09-09T05:20:18.863Z,13.07
2023-09-09T05:22:46.161Z,10.93
2023-09-09T05:25:13.105Z,11.32
2023-09-09T05:27:53.927Z,11.45
2023-09-09T05:30:21.485Z,12.20
2023-09-09T05:32:48.996Z,10.15
2023-09-09T05:35:16.427Z,8.82
2023-09-09T05:37:44.385Z,8.10
2023-09-09T05:40:11.962Z,9.20
2023-09-09T05:42:40.229Z,9.30
2023-09-09T05:45:13.106Z,9.85
2023-09-09T05:47:39.992Z,9.30
2023-09-09T05:50:09.220Z,8.48
2023-09-09T05:52:36.258Z,8.35
2023-09-09T05:55:03.679Z,7.32
2023-09-09T05:57:33.933Z,6.70
2023-09-09T06:00:01.181Z,5.50
2023-09-09T06:02:28.611Z,6.40
2023-09-09T06:04:55.956Z,5.78
2023-09-09T06:07:23.392Z,5.30
2023-09-09T06:09:50.878Z,5.03
2023-09-09T06:12:19.081Z,5.13
2023-09-09T06:14:46.650Z,4.85
2023-09-09T06:17:14.763Z,5.10
2023-09-09T06:19:42.197Z,6.40
2023-09-09T06:22:09.595Z,4.70
2023-09-09T06:24:36.940Z,4.72
2023-09-09T06:27:04.470Z,5.35
2023-09-09T06:29:31.727Z,4.95
2023-09-09T06:31:59.333Z,5.13
2023-09-09T06:34:27.555Z,5.53
2023-09-09T06:36:54.838Z,4.95
2023-09-09T06:39:22.180Z,4.95
2023-09-09T06:41:49.639Z,4.95
2023-09-09T06:44:16.450Z,5.28
2023-09-09T06:46:43.585Z,5.25
2023-09-09T06:49:11.397Z,5.05
2023-09-09T06:51:38.888Z,4.65
2023-09-09T06:54:06.235Z,5.30
2023-09-09T06:56:33.380Z,5.30
2023-09-09T06:59:00.946Z,4.95
2023-09-09T07:01:28.282Z,4.90
2023-09-09T07:03:55.842Z,4.65
2023-09-09T07:06:23.316Z,4.97
2023-09-09T07:08:51.218Z,4.85
2023-09-09T07:11:18.397Z,4.15
2023-09-09T07:13:45.602Z,4.15
2023-09-09T07:16:13.024Z,5.60
2023-09-09T07:18:41.318Z,4.40
2023-09-09T07:21:09.133Z,4.95
2023-09-09T07:23:36.610Z,5.70
2023-09-09T07:26:06.084Z,3.80
2023-09-09T07:28:33.655Z,4.90
2023-09-09T07:31:06.326Z,4.63
2023-09-09T07:33:33.580Z,5.70
2023-09-09T07:36:00.382Z,5.50
2023-09-09T07:38:27.556Z,5.72
2023-09-09T07:40:59.481Z,6.70
2023-09-09T07:43:26.908Z,5.90
2023-09-09T07:45:54.769Z,6.63
2023-09-09T07:48:22.759Z,6.38
2023-09-09T07:50:57.421Z,5.93
2023-09-09T07:53:25.206Z,5.88
2023-09-09T07:55:53.186Z,6.13
2023-09-09T07:58:20.713Z,5.88
2023-09-09T08:00:48.764Z,5.72
2023-09-09T08:03:16.392Z,5.47
2023-09-09T08:05:43.671Z,5.85
2023-09-09T08:08:12.172Z,5.97
2023-09-09T08:10:39.443Z,6.40
2023-09-09T08:13:06.837Z,5.63
2023-09-09T08:15:41.689Z,5.45
2023-09-09T08:18:09.451Z,5.35
2023-09-09T08:20:36.764Z,5.38
2023-09-09T08:23:04.339Z,5.32
2023-09-09T08:25:34.550Z,4.95
2023-09-09T08:28:05.470Z,5.50
2023-09-09T08:30:33.048Z,4.88
2023-09-09T08:33:00.594Z,5.32
2023-09-09T08:35:28.265Z,5.03
2023-09-09T08:37:55.484Z,5.30
2023-09-09T08:40:23.024Z,5.35
2023-09-09T08:42:58.517Z,5.28
2023-09-09T08:45:44.516Z,4.97
2023-09-09T08:48:18.489Z,4.53
2023-09-09T08:50:48.888Z,4.95
2023-09-09T08:53:19.005Z,5.60
2023-09-09T08:55:46.726Z,4.70
2023-09-09T08:58:14.673Z,4.80
2023-09-09T09:00:41.941Z,5.20
2023-09-09T09:03:10.297Z,5.78
2023-09-09T09:05:39.884Z,5.88
2023-09-09T09:08:08.758Z,5.85
2023-09-09T09:10:36.093Z,5.05
2023-09-09T09:13:05.335Z,5.30
2023-09-09T09:15:37.620Z,5.75
2023-09-09T09:18:06.004Z,5.10
2023-09-09T09:20:34.926Z,5.40
2023-09-09T09:23:04.959Z,4.80
2023-09-09T09:25:41.364Z,5.68
2023-09-09T09:28:08.887Z,6.10
2023-09-09T09:30:36.800Z,5.75
2023-09-09T09:33:04.400Z,5.45
2023-09-09T09:35:33.987Z,4.95
2023-09-09T09:38:15.400Z,5.78
2023-09-09T09:40:42.731Z,6.18
2023-09-09T09:43:22.705Z,5.90
2023-09-09T09:45:50.099Z,5.57
2023-09-09T09:48:30.385Z,5.40
2023-09-09T09:50:57.778Z,5.38
2023-09-09T09:53:25.093Z,5.15
2023-09-09T09:55:52.674Z,5.43
2023-09-09T09:58:23.774Z,5.30
2023-09-09T10:00:55.600Z,5.43
2023-09-09T10:03:25.417Z,5.35
2023-09-09T10:05:56.442Z,5.30
2023-09-09T10:08:31.255Z,5.03
2023-09-09T10:11:07.715Z,5.10
2023-09-09T10:14:14.049Z,5.18
2023-09-09T10:16:43.741Z,5.82
2023-09-09T10:19:16.213Z,4.93
2023-09-09T10:21:46.311Z,5.30
2023-09-09T10:24:16.336Z,4.88
2023-09-09T10:26:44.803Z,4.57
2023-09-09T10:29:12.891Z,5.07
2023-09-09T10:31:42.901Z,5.57
2023-09-09T10:34:12.018Z,4.78
2023-09-09T10:36:51.078Z,5.15
2023-09-09T10:39:29.235Z,6.45
2023-09-09T10:41:57.724Z,4.78
2023-09-09T10:44:25.505Z,5.28
2023-09-09T10:46:59.928Z,4.50
2023-09-09T10:49:33.917Z,4.55
2023-09-09T10:54:29.122Z,4.75
2023-09-09T10:57:04.001Z,4.90
2023-09-09T10:59:34.636Z,5.25
2023-09-09T11:02:24.752Z,4.68
2023-09-09T11:05:15.078Z,4.95
2023-09-09T11:07:44.790Z,4.88
2023-09-09T11:10:24.370Z,4.35
2023-09-09T11:12:58.299Z,5.07
2023-09-09T11:15:29.982Z,5.38
2023-09-09T11:17:57.875Z,4.13
2023-09-09T11:20:26.335Z,4.53
2023-09-09T11:22:54.566Z,4.53
2023-09-09T11:25:23.295Z,4.45
2023-09-09T11:27:52.925Z,4.97
2023-09-09T11:30:21.277Z,4.07
2023-09-09T11:32:51.077Z,5.50
2023-09-09T11:35:19.296Z,4.72
2023-09-09T11:37:46.585Z,5.20
2023-09-09T11:40:18.766Z,4.93
2023-09-09T11:42:53.114Z,4.85
2023-09-09T11:45:20.622Z,4.43
2023-09-09T11:47:49.365Z,5.25
2023-09-09T11:50:17.067Z,5.68
2023-09-09T11:52:47.958Z,5.35
2023-09-09T11:55:19.071Z,4.75
2023-09-09T11:57:58.782Z,9.85
2023-09-09T12:00:26.137Z,6.43
2023-09-09T12:02:53.751Z,5.05
2023-09-09T12:05:21.601Z,4.75
2023-09-09T12:07:49.577Z,5.07
2023-09-09T12:10:16.990Z,4.93
2023-09-09T12:12:44.998Z,4.60
2023-09-09T12:15:14.727Z,5.28
2023-09-09T12:17:42.340Z,5.05
2023-09-09T12:20:10.214Z,5.07
2023-09-09T12:22:43.946Z,4.88
2023-09-09T12:25:29.737Z,5.43
2023-09-09T12:27:57.310Z,5.30
2023-09-09T12:30:41.331Z,4.72
2023-09-09T12:33:13.870Z,5.10
2023-09-09T12:35:46.613Z,5.25
2023-09-09T12:38:15.336Z,5.72
2023-09-09T12:40:54.130Z,4.70
2023-09-09T12:43:28.123Z,4.78
2023-09-09T12:45:57.932Z,5.35
2023-09-09T12:48:25.266Z,5.00
2023-09-09T12:50:52.512Z,5.25
2023-09-09T12:53:20.041Z,5.15
2023-09-09T12:55:47.250Z,5.75
2023-09-09T12:58:15.554Z,5.00
2023-09-09T13:00:42.879Z,5.65
2023-09-09T13:03:11.722Z,6.80
2023-09-09T13:05:39.020Z,6.63
2023-09-09T13:08:06.538Z,6.43
2023-09-09T13:10:34.107Z,6.15
2023-09-09T13:13:01.361Z,5.15
2023-09-09T13:15:29.055Z,4.65
2023-09-09T13:17:56.486Z,4.75
2023-09-09T13:20:23.716Z,4.78
2023-09-09T13:22:51.019Z,4.70
2023-09-09T13:25:18.215Z,5.00
2023-09-09T13:27:46.112Z,5.18
2023-09-09T13:30:13.681Z,4.40
2023-09-09T13:32:42.299Z,4.90
2023-09-09T13:35:10.171Z,4.38
2023-09-09T13:37:37.711Z,4.90
2023-09-09T13:40:06.239Z,4.85
2023-09-09T13:42:33.560Z,4.43
2023-09-09T13:45:10.446Z,5.10
2023-09-09T13:47:39.013Z,4.88
2023-09-09T13:50:07.576Z,4.97
2023-09-09T13:52:35.098Z,4.75
2023-09-09T13:55:04.829Z,5.18
2023-09-09T13:57:34.066Z,4.47
2023-09-09T14:00:02.069Z,5.13
2023-09-09T14:02:30.094Z,5.18
2023-09-09T14:04:57.696Z,4.85
2023-09-09T14:07:24.910Z,4.72
2023-09-09T14:09:52.297Z,5.05
2023-09-09T14:12:19.597Z,5.10
2023-09-09T14:14:46.856Z,4.57
2023-09-09T14:17:14.297Z,4.57
2023-09-09T14:19:41.705Z,4.80
2023-09-09T14:22:09.005Z,5.30
2023-09-09T14:24:36.254Z,4.75
2023-09-09T14:27:03.477Z,5.20
2023-09-09T14:29:30.674Z,5.55
2023-09-09T14:31:58.062Z,5.47
2023-09-09T14:34:26.111Z,4.93
2023-09-09T14:36:53.374Z,4.68
2023-09-09T14:39:20.692Z,5.15
2023-09-09T14:41:47.849Z,4.93
2023-09-09T14:44:15.186Z,4.95
2023-09-09T14:46:42.522Z,5.70
2023-09-09T14:49:09.930Z,4.93
2023-09-09T14:51:37.576Z,5.30
2023-09-09T14:54:06.689Z,5.72
2023-09-09T14:56:34.545Z,4.80
2023-09-09T14:59:01.857Z,4.90
2023-09-09T15:01:29.340Z,5.28
2023-09-09T15:03:56.111Z,5.38
2023-09-09T15:06:25.482Z,4.88
2023-09-09T15:08:52.585Z,5.47
2023-09-09T15:11:21.511Z,4.82
2023-09-09T15:13:50.051Z,5.85
2023-09-09T15:16:20.736Z,5.30
2023-09-09T15:18:48.272Z,5.60
2023-09-09T15:21:15.164Z,5.13
2023-09-09T15:23:42.683Z,5.50
2023-09-09T15:26:09.871Z,4.78
2023-09-09T15:28:37.197Z,5.15
2023-09-09T15:31:07.189Z,5.40
2023-09-09T15:33:34.699Z,6.35
2023-09-09T15:36:02.504Z,81.18
2023-09-09T15:38:29.804Z,12.27
2023-09-09T15:40:57.147Z,16.48
2023-09-09T15:43:24.507Z,5.63
2023-09-09T15:46:03.216Z,5.63
2023-09-09T15:48:31.194Z,5.50
2023-09-09T15:50:58.476Z,5.15
2023-09-09T15:53:25.926Z,5.53
2023-09-09T15:55:53.183Z,6.43
2023-09-09T15:58:22.112Z,6.18
2023-09-09T16:00:49.895Z,5.30
2023-09-09T16:03:17.591Z,6.32
2023-09-09T16:05:44.975Z,6.47
2023-09-09T16:08:12.425Z,6.15
2023-09-09T16:10:39.971Z,6.45
2023-09-09T16:13:07.347Z,6.38
2023-09-09T16:15:34.660Z,8.07
2023-09-09T16:18:02.133Z,8.48
2023-09-09T16:20:29.411Z,8.52
2023-09-09T16:22:56.840Z,7.70
2023-09-09T16:25:25.740Z,9.82
2023-09-09T16:27:53.046Z,9.38
2023-09-09T16:30:20.277Z,9.15
2023-09-09T16:32:47.604Z,9.38
2023-09-09T16:35:17.128Z,9.05
2023-09-09T16:37:44.359Z,9.73
2023-09-09T16:40:12.531Z,9.88
2023-09-09T16:42:39.800Z,7.50
2023-09-09T16:45:07.648Z,7.68
2023-09-09T16:47:34.848Z,7.32
2023-09-09T16:50:02.477Z,6.57
2023-09-09T16:52:29.811Z,7.35
2023-09-09T16:54:57.067Z,6.50
2023-09-09T16:57:24.440Z,6.72
2023-09-09T16:59:54.328Z,6.60
2023-09-09T17:02:21.652Z,6.22
2023-09-09T17:04:49.050Z,6.72
2023-09-09T17:07:16.405Z,7.32
2023-09-09T17:09:43.853Z,7.57
2023-09-09T17:12:11.217Z,7.10
2023-09-09T17:14:38.513Z,7.57
2023-09-09T17:17:05.795Z,7.88
2023-09-09T17:19:35.965Z,7.65
2023-09-09T17:22:03.375Z,7.68
2023-09-09T17:24:30.684Z,8.38
2023-09-09T17:26:57.925Z,7.32
2023-09-09T17:29:25.549Z,8.68
2023-09-09T17:31:53.053Z,8.80
2023-09-09T17:34:20.992Z,7.97
2023-09-09T17:36:48.294Z,8.70
2023-09-09T17:39:22.012Z,8.73
2023-09-09T17:42:05.428Z,8.82
2023-09-09T17:44:33.480Z,9.45
2023-09-09T17:47:00.398Z,8.85
2023-09-09T17:49:28.720Z,9.60
2023-09-09T17:51:56.030Z,7.82
2023-09-09T17:54:27.163Z,8.85
2023-09-09T17:56:57.266Z,8.90
2023-09-09T17:59:24.688Z,8.23
2023-09-09T18:01:52.100Z,9.10
2023-09-09T18:04:19.734Z,9.30
2023-09-09T18:06:49.130Z,8.77
2023-09-09T18:09:16.358Z,8.25
2023-09-09T18:11:43.919Z,19.00
2023-09-09T18:14:11.290Z,38.25
2023-09-09T18:16:39.116Z,34.10
2023-09-09T18:19:06.597Z,22.98
2023-09-09T18:21:33.960Z,20.05
2023-09-09T18:24:01.474Z,60.90
2023-09-09T18:26:29.226Z,26.88
2023-09-09T18:28:56.875Z,19.02
2023-09-09T18:31:25.543Z,17.83
2023-09-09T18:33:52.955Z,17.88
2023-09-09T18:36:20.694Z,20.08
2023-09-09T18:38:47.977Z,17.55
2023-09-09T18:41:15.529Z,15.75
2023-09-09T18:43:44.138Z,16.73
2023-09-09T18:46:11.630Z,14.70
2023-09-09T18:48:39.726Z,14.95
2023-09-09T18:51:07.379Z,15.13
2023-09-09T18:53:34.902Z,14.80
2023-09-09T18:56:01.764Z,14.13
2023-09-09T18:58:29.915Z,15.02
2023-09-09T19:00:57.503Z,14.82
2023-09-09T19:03:25.927Z,23.88
2023-09-09T19:05:56.190Z,16.77
2023-09-09T19:08:23.480Z,14.38
2023-09-09T19:10:51.364Z,13.60
2023-09-09T19:13:19.293Z,14.88
2023-09-09T19:15:46.079Z,13.52
2023-09-09T19:18:13.866Z,15.38
2023-09-09T19:20:41.495Z,30.63
2023-09-09T19:23:09.176Z,34.45
2023-09-09T19:25:38.619Z,37.42
2023-09-09T19:28:06.710Z,28.10
2023-09-09T19:30:33.921Z,32.22
2023-09-09T19:33:02.767Z,22.25
2023-09-09T19:35:30.696Z,19.67
2023-09-09T19:38:01.574Z,19.75
2023-09-09T19:40:29.640Z,18.25
2023-09-09T19:42:57.092Z,17.40
2023-09-09T19:45:24.297Z,15.55
2023-09-09T19:47:51.782Z,15.65
2023-09-09T19:50:19.295Z,13.82
2023-09-09T19:52:48.046Z,15.07
2023-09-09T19:55:15.322Z,14.18
2023-09-09T19:57:43.136Z,15.10
2023-09-09T20:00:11.055Z,15.40
2023-09-09T20:02:38.760Z,14.23
2023-09-09T20:05:06.806Z,14.60
2023-09-09T20:07:34.153Z,14.98
2023-09-09T20:10:10.056Z,14.07
2023-09-09T20:12:37.565Z,14.07
2023-09-09T20:15:05.338Z,16.05
2023-09-09T20:17:33.628Z,13.77
2023-09-09T20:20:00.975Z,13.25
2023-09-09T20:22:29.707Z,14.52
2023-09-09T20:24:57.493Z,14.30
2023-09-09T20:27:24.942Z,13.82
2023-09-09T20:29:52.739Z,14.13
2023-09-09T20:32:20.051Z,12.82
2023-09-09T20:34:52.642Z,12.55
2023-09-09T20:37:19.850Z,12.68
2023-09-09T20:39:47.360Z,12.43
2023-09-09T20:42:14.662Z,12.35
2023-09-09T20:44:41.918Z,11.77
2023-09-09T20:47:09.585Z,13.60
2023-09-09T20:49:38.082Z,12.23
2023-09-09T20:52:05.754Z,11.57
2023-09-09T20:54:33.013Z,13.32
2023-09-09T20:57:01.223Z,13.40
2023-09-09T20:59:28.726Z,14.82
2023-09-09T21:01:56.229Z,15.55
2023-09-09T21:04:23.251Z,17.50
2023-09-09T21:06:50.080Z,15.45
2023-09-09T21:09:17.659Z,16.73
2023-09-09T21:11:44.515Z,18.58
2023-09-09T21:14:12.807Z,18.08
2023-09-09T21:16:40.373Z,18.63
2023-09-09T21:19:07.316Z,18.67
2023-09-09T21:21:34.665Z,23.38
2023-09-09T21:24:02.295Z,22.65
2023-09-09T21:26:31.120Z,25.52
2023-09-09T21:28:59.458Z,25.35
2023-09-09T21:31:26.892Z,21.52
2023-09-09T21:33:55.300Z,24.80
2023-09-09T21:36:23.134Z,25.35
2023-09-09T21:38:51.227Z,21.08
2023-09-09T21:41:19.810Z,22.17
2023-09-09T21:43:47.015Z,23.48
2023-09-09T21:46:17.804Z,22.40
2023-09-09T21:48:44.631Z,19.60
2023-09-09T21:51:13.777Z,16.85
2023-09-09T21:53:40.990Z,15.77
2023-09-09T21:56:08.429Z,16.27
2023-09-09T21:58:35.412Z,15.18
2023-09-09T22:01:10.147Z,15.98
2023-09-09T22:03:37.137Z,16.08
2023-09-09T22:06:05.505Z,15.30
2023-09-09T22:08:33.690Z,14.90
2023-09-09T22:11:10.190Z,14.82
2023-09-09T22:13:39.271Z,13.88
2023-09-09T22:16:10.093Z,15.73
2023-09-09T22:18:38.664Z,16.05
2023-09-09T22:21:07.772Z,14.90
2023-09-09T22:23:36.707Z,16.45
2023-09-09T22:26:06.550Z,17.30
2023-09-09T22:28:37.024Z,16.17
2023-09-09T22:31:04.411Z,15.75
2023-09-09T22:33:31.299Z,17.50
2023-09-09T22:35:58.592Z,16.42
2023-09-09T22:38:25.783Z,17.10
2023-09-09T22:40:53.820Z,16.60
2023-09-09T22:43:21.070Z,18.65
2023-09-09T22:45:49.706Z,19.60
2023-09-09T22:48:16.994Z,18.67
2023-09-09T22:50:44.408Z,25.77
2023-09-09T22:53:11.754Z,22.92
2023-09-09T22:55:38.754Z,19.10
2023-09-09T22:58:06.150Z,18.90
2023-09-09T23:00:33.391Z,17.30
2023-09-09T23:03:00.562Z,18.60
2023-09-09T23:05:27.392Z,18.98
2023-09-09T23:07:54.285Z,18.75
2023-09-09T23:10:21.628Z,18.10
2023-09-09T23:12:49.375Z,16.65
2023-09-09T23:15:16.244Z,14.90
2023-09-09T23:17:43.121Z,15.02
2023-09-09T23:20:11.714Z,14.20
2023-09-09T23:22:38.702Z,14.30
2023-09-09T23:25:06.503Z,14.90
2023-09-09T23:27:40.628Z,14.20
2023-09-09T23:30:08.836Z,15.00
2023-09-09T23:32:36.068Z,13.57
2023-09-09T23:35:03.842Z,12.98
2023-09-09T23:37:31.546Z,13.38
2023-09-09T23:39:58.908Z,15.32
2023-09-09T23:42:26.117Z,16.27
2023-09-09T23:44:53.346Z,14.27
2023-09-09T23:47:20.694Z,14.40
2023-09-09T23:49:48.027Z,16.17
2023-09-09T23:52:15.890Z,13.57
2023-09-09T23:54:43.060Z,13.82
2023-09-09T23:57:10.244Z,14.13
2023-09-09T23:59:38.138Z,14.07
